Latest Weather Observations for Rosslyn Bay Harbour

IDQ60801

Issued at 7:02 pm EST Tuesday 17 January 2017 (issued every 30 minutes, with the page automatically refreshed every 10 minutes)

About weather observations | Map of weather stations | Latest weather observations for QLD | Other Formats
Station Details ID: 033208 Name: ROSSLYN BAY NTC AWS Lat: -23.16 Lon: 150.79 Height: 0.0 m
Data from the previous 72 hours. | See also: Recent months for locations in Queensland
Date/Time
EST
Temp
°C
App
Temp
°C
Dew
Point
°C
Rel
Hum
%
Delta-T
°C
Wind Press
QNH
hPa
Press
MSL
hPa
Rain since
9am
mm
Dir  Spd
km/h
Gust
km/h
Spd
kts
Gust
kts
17/06:30pm 27.9 - - - - SSW 7 15 4 8 1013.7 1013.7 -
17/06:00pm 28.0 - - - - SW 7 24 4 13 1013.5 1013.5 -
17/05:30pm 28.3 - - - - NW 6 17 3 9 1013.2 1013.2 -
17/05:00pm 28.6 - - - - SE 6 20 3 11 1013.1 1013.1 -
17/04:30pm 28.9 - - - - E 7 22 4 12 1012.9 1012.9 -
17/04:00pm 28.9 - - - - ESE 6 13 3 7 1012.9 1012.9 -
17/03:30pm 29.1 - - - - E 6 13 3 7 1013.1 1013.1 -
17/03:00pm 29.0 - - - - WSW 6 19 3 10 1013.3 1013.3 -
17/02:30pm 29.5 - - - - SSW 6 13 3 7 1013.6 1013.6 -
17/02:00pm 29.4 - - - - S 6 17 3 9 1013.8 1013.8 -
17/01:30pm 28.9 - - - - S 7 15 4 8 1014.2 1014.2 -
17/01:00pm 29.0 - - - - S 7 17 4 9 1014.6 1014.6 -
17/12:30pm 28.9 - - - - S 9 20 5 11 1014.8 1014.8 -
17/12:00pm 28.7 - - - - S 13 22 7 12 1015.0 1015.0 -
17/11:30am 28.8 - - - - S 11 22 6 12 1015.3 1015.3 -
17/11:00am 28.4 - - - - S 17 28 9 15 1015.4 1015.4 -
17/10:30am 28.5 - - - - S 13 20 7 11 1015.5 1015.5 -
17/10:00am 28.5 - - - - S 9 19 5 10 1015.5 1015.5 -
17/09:30am 28.3 - - - - S 9 17 5 9 1015.4 1015.4 -
17/09:00am 28.1 - - - - S 9 20 5 11 1015.3 1015.3 -
17/08:30am 28.0 - - - - SSW 7 17 4 9 1015.2 1015.2 -
17/08:00am 27.6 - - - - S 9 20 5 11 1015.1 1015.1 -
17/07:30am 27.5 - - - - SSW 7 17 4 9 1015.1 1015.1 -
17/07:00am 27.3 - - - - S 11 20 6 11 1014.8 1014.8 -
17/06:30am 27.3 - - - - S 11 19 6 10 1014.4 1014.4 -
17/06:00am 27.1 - - - - S 9 19 5 10 1014.1 1014.1 -
17/05:30am 27.1 - - - - SSW 7 22 4 12 1013.6 1013.6 -
17/05:00am 27.1 - - - - S 9 20 5 11 1013.3 1013.3 -
17/04:30am 27.1 - - - - S 9 22 5 12 1012.8 1012.8 -
17/04:00am 27.1 - - - - SSW 9 22 5 12 1012.5 1012.5 -
17/03:30am 27.0 - - - - S 9 20 5 11 1012.6 1012.6 -
17/03:00am 27.0 - - - - S 7 19 4 10 1012.5 1012.5 -
17/02:30am 27.1 - - - - S 7 19 4 10 1012.8 1012.8 -
17/02:00am 27.1 - - - - SSW 7 19 4 10 1012.8 1012.8 -
17/01:30am 26.7 - - - - S 6 15 3 8 1013.1 1013.1 -
17/01:00am 26.0 - - - - ENE 13 35 7 19 1013.2 1013.2 -
17/12:30am 27.3 - - - - SSW 7 22 4 12 1013.4 1013.4 -
17/12:00am 27.4 - - - - S 7 17 4 9 1013.6 1013.6 -
 
Date/Time
EST
Temp
°C
App
Temp
°C
Dew
Point
°C
Rel
Hum
%
Delta-T
°C
Wind Press
QNH
hPa
Press
MSL
hPa
Rain since
9am
mm
Dir  Spd
km/h
Gust
km/h
Spd
kts
Gust
kts
16/11:30pm 27.4 - - - - SW 7 17 4 9 1013.7 1013.7 -
16/11:00pm 27.4 - - - - SSW 7 20 4 11 1013.9 1013.9 -
16/10:30pm 27.5 - - - - SSW 7 20 4 11 1014.0 1014.0 -
16/10:00pm 27.4 - - - - SW 7 19 4 10 1014.1 1014.1 -
16/09:30pm 27.5 - - - - SSW 7 15 4 8 1014.0 1014.0 -
16/09:00pm 27.6 - - - - SSW 7 19 4 10 1013.7 1013.7 -
16/08:30pm 27.6 - - - - SSW 7 17 4 9 1013.6 1013.6 -
16/08:00pm 27.6 - - - - SSW 6 17 3 9 1013.5 1013.5 -
16/07:30pm 27.6 - - - - SSW 7 17 4 9 1013.4 1013.4 -
16/07:00pm 27.8 - - - - SW 7 17 4 9 1013.1 1013.1 -
16/06:30pm 28.2 - - - - SSW 7 17 4 9 1012.8 1012.8 -
16/06:00pm 28.1 - - - - SW 6 11 3 6 1012.3 1012.3 -
16/05:30pm 28.3 - - - - WSW 6 15 3 8 1011.9 1011.9 -
16/05:00pm 28.8 - - - - WSW 7 17 4 9 1011.6 1011.6 -
16/04:30pm 28.8 - - - - WSW 6 17 3 9 1011.5 1011.5 -
16/04:00pm 29.1 - - - - ENE 7 20 4 11 1011.2 1011.2 -
16/03:30pm 29.0 - - - - E 6 20 3 11 1011.3 1011.3 -
16/03:00pm 29.2 - - - - NE 7 26 4 14 1011.2 1011.2 -
16/02:30pm 29.3 - - - - E 7 24 4 13 1011.3 1011.3 -
16/02:00pm 29.3 - - - - E 7 22 4 12 1011.4 1011.4 -
16/01:30pm 29.1 - - - - ESE 7 26 4 14 1011.5 1011.5 -
16/01:00pm 29.1 - - - - ESE 9 28 5 15 1011.5 1011.5 -
16/12:30pm 29.3 - - - - SSE 9 32 5 17 1011.6 1011.6 -
16/12:00pm 29.2 - - - - E 9 22 5 12 1011.6 1011.6 -
16/11:30am 29.4 - - - - ENE 7 24 4 13 1011.5 1011.5 -
16/11:00am 29.2 - - - - E 7 19 4 10 1011.6 1011.6 -
16/10:30am 29.1 - - - - ENE 9 24 5 13 1011.7 1011.7 -
16/10:00am 29.0 - - - - ENE 7 24 4 13 1011.8 1011.8 -
16/09:30am 28.9 - - - - ENE 6 13 3 7 1011.8 1011.8 -
16/09:00am 27.9 - - - - NE 7 13 4 7 1011.9 1011.9 -
16/08:30am 27.8 - - - - NE 15 20 8 11 1011.6 1011.6 -
16/08:00am 27.8 - - - - NE 13 22 7 12 1011.3 1011.3 -
16/07:30am 28.1 - - - - ENE 11 24 6 13 1011.1 1011.1 -
16/07:00am 27.7 - - - - ENE 9 17 5 9 1010.8 1010.8 -
16/06:30am 27.4 - - - - NE 13 19 7 10 1010.6 1010.6 -
16/06:00am 27.5 - - - - NNE 7 13 4 7 1010.3 1010.3 -
16/05:30am 27.3 - - - - NE 11 15 6 8 1009.9 1009.9 -
16/05:00am 27.4 - - - - ENE 15 20 8 11 1009.5 1009.5 -
16/04:30am 27.4 - - - - ENE 13 22 7 12 1009.0 1009.0 -
16/04:00am 27.7 - - - - ENE 15 20 8 11 1008.5 1008.5 -
16/03:30am 27.8 - - - - ENE 6 17 3 9 1008.5 1008.5 -
16/03:00am 27.7 - - - - ENE 11 17 6 9 1008.4 1008.4 -
16/02:30am 27.8 - - - - ENE 7 15 4 8 1008.5 1008.5 -
16/02:00am 27.8 - - - - ENE 7 17 4 9 1008.9 1008.9 -
16/01:30am 28.0 - - - - ENE 15 20 8 11 1009.0 1009.0 -
16/01:00am 28.0 - - - - NE 13 17 7 9 1009.1 1009.1 -
16/12:30am 28.1 - - - - NE 11 19 6 10 1009.4 1009.4 -
16/12:00am 28.3 - - - - NE 11 19 6 10 1009.6 1009.6 -
 
Date/Time
EST
Temp
°C
App
Temp
°C
Dew
Point
°C
Rel
Hum
%
Delta-T
°C
Wind Press
QNH
hPa
Press
MSL
hPa
Rain since
9am
mm
Dir  Spd
km/h
Gust
km/h
Spd
kts
Gust
kts
15/11:30pm 28.3 - - - - NNE 13 19 7 10 1009.8 1009.8 -
15/11:00pm 28.2 - - - - NNE 13 19 7 10 1010.0 1010.0 -
15/10:30pm 28.2 - - - - NNE 15 20 8 11 1010.0 1010.0 -
15/10:00pm 28.3 - - - - NE 15 22 8 12 1010.0 1010.0 -
15/09:30pm 28.3 - - - - NE 15 24 8 13 1010.0 1010.0 -
15/09:00pm 28.3 - - - - NE 19 26 10 14 1009.5 1009.5 -
15/08:30pm 28.4 - - - - NNE 17 24 9 13 1009.2 1009.2 -
15/08:00pm 28.3 - - - - NE 24 30 13 16 1008.7 1008.7 -
15/07:30pm 28.4 - - - - ENE 15 26 8 14 1008.4 1008.4 -
15/07:00pm 28.3 - - - - ENE 13 22 7 12 1007.9 1007.9 -
15/06:30pm 28.3 - - - - NE 19 26 10 14 1007.7 1007.7 -
15/06:00pm 28.4 - - - - NE 22 28 12 15 1007.1 1007.1 -
15/05:30pm 28.3 - - - - NE 22 30 12 16 1006.1 1006.1 -
15/05:00pm 28.6 - - - - NE 20 28 11 15 1005.8 1005.8 -
15/04:30pm 28.6 - - - - NE 20 28 11 15 1005.6 1005.6 -
15/04:00pm 28.7 - - - - NE 19 28 10 15 1005.8 1005.8 -
15/03:30pm 28.8 - - - - NE 19 26 10 14 1005.5 1005.5 -
15/03:00pm 28.7 - - - - NE 22 28 12 15 1005.6 1005.6 -
15/02:30pm 28.9 - - - - NNE 15 24 8 13 1006.1 1006.1 -
15/02:00pm 28.8 - - - - NE 17 24 9 13 1006.7 1006.7 -
15/01:30pm 29.0 - - - - NNE 17 24 9 13 1006.7 1006.7 -
15/01:00pm 29.0 - - - - NE 15 22 8 12 1007.3 1007.3 -
15/12:30pm 28.9 - - - - NE 17 26 9 14 1007.6 1007.6 -
15/12:00pm 28.7 - - - - NE 17 22 9 12 1007.6 1007.6 -
15/11:30am 28.9 - - - - NE 15 19 8 10 1007.8 1007.8 -
15/11:00am 28.8 - - - - NE 13 17 7 9 1007.9 1007.9 -
15/10:30am 28.7 - - - - NE 13 17 7 9 1008.0 1008.0 -
15/10:00am 28.4 - - - - ENE 11 15 6 8 1007.8 1007.8 -
15/09:30am 28.2 - - - - NE 9 13 5 7 1007.9 1007.9 -
15/09:00am 28.1 - - - - NE 9 15 5 8 1008.1 1008.1 -
15/08:30am 27.8 - - - - NNE 9 13 5 7 1008.1 1008.1 -
15/08:00am 27.7 - - - - NNE 7 11 4 6 1008.1 1008.1 -
15/07:30am 27.4 - - - - NNE 7 13 4 7 1008.1 1008.1 -
15/07:00am 27.1 - - - - N 4 7 2 4 1008.2 1008.2 -
15/06:30am 26.4 - - - - NW 2 4 1 2 1007.9 1007.9 -
15/06:00am 26.0 - - - - W 2 4 1 2 1007.5 1007.5 -
15/05:30am 25.9 - - - - WSW 4 6 2 3 1007.2 1007.2 -
15/05:00am 26.1 - - - - W 6 9 3 5 1006.8 1006.8 -
15/04:30am 26.4 - - - - NNW 4 6 2 3 1006.4 1006.4 -
15/04:00am 26.4 - - - - WSW 2 6 1 3 1006.5 1006.5 -
15/03:30am 26.8 - - - - NNW 2 6 1 3 1006.4 1006.4 -
15/03:00am 26.8 - - - - NNW 6 9 3 5 1006.5 1006.5 -
15/02:30am 26.8 - - - - N 7 11 4 6 1006.6 1006.6 -
15/02:00am 27.0 - - - - N 7 11 4 6 1006.4 1006.4 -
15/01:30am 27.2 - - - - N 9 15 5 8 1006.7 1006.7 -
15/01:00am 27.3 - - - - N 13 20 7 11 1006.9 1006.9 -
15/12:30am 27.7 - - - - N 15 20 8 11 1007.2 1007.2 -
15/12:00am 27.9 - - - - N 7 11 4 6 1007.3 1007.3 -
 
Date/Time
EST
Temp
°C
App
Temp
°C
Dew
Point
°C
Rel
Hum
%
Delta-T
°C
Wind Press
QNH
hPa
Press
MSL
hPa
Rain since
9am
mm
Dir  Spd
km/h
Gust
km/h
Spd
kts
Gust
kts
14/11:30pm 28.0 - - - - N 7 11 4 6 1007.4 1007.4 -
14/11:00pm 27.9 - - - - N 9 11 5 6 1007.5 1007.5 -
14/10:30pm 28.3 - - - - N 7 9 4 5 1007.4 1007.4 -
14/10:00pm 28.4 - - - - NNE 9 13 5 7 1007.1 1007.1 -
14/09:30pm 28.4 - - - - NNE 4 9 2 5 1006.9 1006.9 -
14/09:00pm 28.3 - - - - NW 2 6 1 3 1006.8 1006.8 -
14/08:30pm 28.6 - - - - WNW 7 11 4 6 1006.9 1006.9 -
14/08:00pm 28.7 - - - - NNW 13 17 7 9 1006.6 1006.6 -
14/07:30pm 29.0 - - - - N 13 22 7 12 1006.2 1006.2 -

Other Formats:

Comma delimited format used in spreadsheet applications
http://www.bom.gov.au/fwo/IDQ60801/IDQ60801.95298.axf

JavaScript Object Notation format (JSON) in row-major order
http://www.bom.gov.au/fwo/IDQ60801/IDQ60801.95298.json